sensor_id;sensor_type;location;lat;lon;timestamp;P1;durP1;ratioP1;P2;durP2;ratioP2
15848;SDS011;8024;48.708;9.394;2023-07-22T00:00:44;2.93;;;2.53;;
15848;SDS011;8024;48.708;9.394;2023-07-22T00:03:11;3.03;;;2.43;;
15848;SDS011;8024;48.708;9.394;2023-07-22T00:05:39;3.53;;;2.17;;
15848;SDS011;8024;48.708;9.394;2023-07-22T00:08:06;5.30;;;3.30;;
15848;SDS011;8024;48.708;9.394;2023-07-22T00:10:34;4.67;;;2.40;;
15848;SDS011;8024;48.708;9.394;2023-07-22T00:13:06;5.93;;;2.13;;
15848;SDS011;8024;48.708;9.394;2023-07-22T00:15:34;2.70;;;2.50;;
15848;SDS011;8024;48.708;9.394;2023-07-22T00:18:02;3.07;;;2.00;;
15848;SDS011;8024;48.708;9.394;2023-07-22T00:20:29;3.13;;;2.40;;
15848;SDS011;8024;48.708;9.394;2023-07-22T00:22:56;4.53;;;2.07;;
15848;SDS011;8024;48.708;9.394;2023-07-22T00:25:24;2.70;;;2.30;;
15848;SDS011;8024;48.708;9.394;2023-07-22T00:27:51;5.27;;;2.50;;
15848;SDS011;8024;48.708;9.394;2023-07-22T00:30:18;4.07;;;2.53;;
15848;SDS011;8024;48.708;9.394;2023-07-22T00:32:46;3.97;;;2.77;;
15848;SDS011;8024;48.708;9.394;2023-07-22T00:35:14;2.87;;;2.57;;
15848;SDS011;8024;48.708;9.394;2023-07-22T00:37:41;3.37;;;2.40;;
15848;SDS011;8024;48.708;9.394;2023-07-22T00:40:08;3.23;;;2.47;;
15848;SDS011;8024;48.708;9.394;2023-07-22T00:42:37;3.47;;;2.77;;
15848;SDS011;8024;48.708;9.394;2023-07-22T00:45:05;2.73;;;2.40;;
15848;SDS011;8024;48.708;9.394;2023-07-22T00:47:33;2.30;;;2.10;;
15848;SDS011;8024;48.708;9.394;2023-07-22T00:50:03;2.30;;;2.13;;
15848;SDS011;8024;48.708;9.394;2023-07-22T00:52:32;4.87;;;2.33;;
15848;SDS011;8024;48.708;9.394;2023-07-22T00:54:59;3.37;;;2.67;;
15848;SDS011;8024;48.708;9.394;2023-07-22T00:57:27;3.53;;;3.27;;
15848;SDS011;8024;48.708;9.394;2023-07-22T00:59:54;3.30;;;2.87;;
15848;SDS011;8024;48.708;9.394;2023-07-22T01:02:22;4.50;;;2.40;;
15848;SDS011;8024;48.708;9.394;2023-07-22T01:04:49;3.07;;;2.77;;
15848;SDS011;8024;48.708;9.394;2023-07-22T01:07:18;2.67;;;2.00;;
15848;SDS011;8024;48.708;9.394;2023-07-22T01:09:46;2.23;;;2.03;;
15848;SDS011;8024;48.708;9.394;2023-07-22T01:12:13;6.57;;;1.97;;
15848;SDS011;8024;48.708;9.394;2023-07-22T01:14:41;2.47;;;1.90;;
15848;SDS011;8024;48.708;9.394;2023-07-22T01:17:09;3.97;;;2.30;;
15848;SDS011;8024;48.708;9.394;2023-07-22T01:19:38;7.00;;;1.93;;
15848;SDS011;8024;48.708;9.394;2023-07-22T01:22:05;4.47;;;2.37;;
15848;SDS011;8024;48.708;9.394;2023-07-22T01:24:34;2.73;;;2.50;;
15848;SDS011;8024;48.708;9.394;2023-07-22T01:27:02;4.53;;;2.30;;
15848;SDS011;8024;48.708;9.394;2023-07-22T01:29:33;6.03;;;2.33;;
15848;SDS011;8024;48.708;9.394;2023-07-22T01:32:01;4.97;;;2.23;;
15848;SDS011;8024;48.708;9.394;2023-07-22T01:34:28;5.40;;;2.00;;
15848;SDS011;8024;48.708;9.394;2023-07-22T01:36:56;2.10;;;1.97;;
15848;SDS011;8024;48.708;9.394;2023-07-22T01:39:25;6.20;;;2.00;;
15848;SDS011;8024;48.708;9.394;2023-07-22T01:41:54;3.03;;;1.90;;
15848;SDS011;8024;48.708;9.394;2023-07-22T01:44:21;4.77;;;1.93;;
15848;SDS011;8024;48.708;9.394;2023-07-22T01:46:48;2.87;;;1.63;;
15848;SDS011;8024;48.708;9.394;2023-07-22T01:49:15;4.37;;;2.20;;
15848;SDS011;8024;48.708;9.394;2023-07-22T01:51:42;2.80;;;1.70;;
15848;SDS011;8024;48.708;9.394;2023-07-22T01:54:10;2.27;;;2.00;;
15848;SDS011;8024;48.708;9.394;2023-07-22T01:56:38;4.00;;;2.27;;
15848;SDS011;8024;48.708;9.394;2023-07-22T01:59:07;1.80;;;1.60;;
15848;SDS011;8024;48.708;9.394;2023-07-22T02:01:34;2.30;;;2.10;;
15848;SDS011;8024;48.708;9.394;2023-07-22T02:04:01;3.50;;;2.07;;
15848;SDS011;8024;48.708;9.394;2023-07-22T02:06:29;2.47;;;2.00;;
15848;SDS011;8024;48.708;9.394;2023-07-22T02:08:56;3.20;;;1.87;;
15848;SDS011;8024;48.708;9.394;2023-07-22T02:11:23;3.50;;;2.73;;
15848;SDS011;8024;48.708;9.394;2023-07-22T02:13:51;3.60;;;2.40;;
15848;SDS011;8024;48.708;9.394;2023-07-22T02:16:19;3.30;;;1.93;;
15848;SDS011;8024;48.708;9.394;2023-07-22T02:18:46;3.27;;;2.10;;
15848;SDS011;8024;48.708;9.394;2023-07-22T02:21:13;3.53;;;2.40;;
15848;SDS011;8024;48.708;9.394;2023-07-22T02:23:40;3.23;;;2.33;;
15848;SDS011;8024;48.708;9.394;2023-07-22T02:26:07;3.00;;;2.10;;
15848;SDS011;8024;48.708;9.394;2023-07-22T02:28:35;2.90;;;2.50;;
15848;SDS011;8024;48.708;9.394;2023-07-22T02:31:02;2.50;;;2.30;;
15848;SDS011;8024;48.708;9.394;2023-07-22T02:33:33;3.53;;;2.37;;
15848;SDS011;8024;48.708;9.394;2023-07-22T02:36:00;3.03;;;2.47;;
15848;SDS011;8024;48.708;9.394;2023-07-22T02:38:28;4.70;;;2.50;;
15848;SDS011;8024;48.708;9.394;2023-07-22T02:40:55;2.90;;;2.70;;
15848;SDS011;8024;48.708;9.394;2023-07-22T02:43:28;3.13;;;2.63;;
15848;SDS011;8024;48.708;9.394;2023-07-22T02:45:55;3.50;;;2.77;;
15848;SDS011;8024;48.708;9.394;2023-07-22T02:48:22;3.43;;;2.50;;
15848;SDS011;8024;48.708;9.394;2023-07-22T02:50:51;4.47;;;2.40;;
15848;SDS011;8024;48.708;9.394;2023-07-22T02:53:18;2.37;;;2.17;;
15848;SDS011;8024;48.708;9.394;2023-07-22T02:55:45;3.97;;;2.47;;
15848;SDS011;8024;48.708;9.394;2023-07-22T02:58:13;2.63;;;2.43;;
15848;SDS011;8024;48.708;9.394;2023-07-22T03:00:40;3.67;;;2.43;;
15848;SDS011;8024;48.708;9.394;2023-07-22T03:03:08;3.87;;;2.73;;
15848;SDS011;8024;48.708;9.394;2023-07-22T03:05:35;4.43;;;2.57;;
15848;SDS011;8024;48.708;9.394;2023-07-22T03:08:04;3.20;;;2.23;;
15848;SDS011;8024;48.708;9.394;2023-07-22T03:10:32;4.13;;;2.60;;
15848;SDS011;8024;48.708;9.394;2023-07-22T03:12:59;4.90;;;2.10;;
15848;SDS011;8024;48.708;9.394;2023-07-22T03:15:28;4.47;;;2.63;;
15848;SDS011;8024;48.708;9.394;2023-07-22T03:17:56;3.43;;;2.57;;
15848;SDS011;8024;48.708;9.394;2023-07-22T03:20:24;3.07;;;2.73;;
15848;SDS011;8024;48.708;9.394;2023-07-22T03:22:51;4.10;;;2.60;;
15848;SDS011;8024;48.708;9.394;2023-07-22T03:25:20;3.40;;;3.10;;
15848;SDS011;8024;48.708;9.394;2023-07-22T03:27:48;2.80;;;2.60;;
15848;SDS011;8024;48.708;9.394;2023-07-22T03:30:15;4.03;;;2.90;;
15848;SDS011;8024;48.708;9.394;2023-07-22T03:32:44;3.13;;;2.60;;
15848;SDS011;8024;48.708;9.394;2023-07-22T03:35:14;2.93;;;2.70;;
15848;SDS011;8024;48.708;9.394;2023-07-22T03:37:41;2.63;;;2.43;;
15848;SDS011;8024;48.708;9.394;2023-07-22T03:40:09;2.97;;;2.50;;
15848;SDS011;8024;48.708;9.394;2023-07-22T03:42:43;4.50;;;3.20;;
15848;SDS011;8024;48.708;9.394;2023-07-22T03:45:10;3.37;;;3.07;;
15848;SDS011;8024;48.708;9.394;2023-07-22T03:47:38;2.77;;;2.50;;
15848;SDS011;8024;48.708;9.394;2023-07-22T03:50:06;2.83;;;2.50;;
15848;SDS011;8024;48.708;9.394;2023-07-22T03:52:34;3.70;;;2.40;;
15848;SDS011;8024;48.708;9.394;2023-07-22T03:55:01;2.90;;;2.40;;
15848;SDS011;8024;48.708;9.394;2023-07-22T03:57:28;2.53;;;2.33;;
15848;SDS011;8024;48.708;9.394;2023-07-22T03:59:57;4.30;;;2.80;;
15848;SDS011;8024;48.708;9.394;2023-07-22T04:02:24;6.00;;;2.60;;
15848;SDS011;8024;48.708;9.394;2023-07-22T04:04:53;3.30;;;2.90;;
15848;SDS011;8024;48.708;9.394;2023-07-22T04:07:21;3.77;;;2.53;;
15848;SDS011;8024;48.708;9.394;2023-07-22T04:09:48;2.47;;;2.33;;
15848;SDS011;8024;48.708;9.394;2023-07-22T04:12:15;3.10;;;2.80;;
15848;SDS011;8024;48.708;9.394;2023-07-22T04:14:43;2.77;;;2.50;;
15848;SDS011;8024;48.708;9.394;2023-07-22T04:17:11;3.50;;;2.70;;
15848;SDS011;8024;48.708;9.394;2023-07-22T04:19:40;4.10;;;3.30;;
15848;SDS011;8024;48.708;9.394;2023-07-22T04:22:08;3.50;;;2.97;;
15848;SDS011;8024;48.708;9.394;2023-07-22T04:24:36;3.30;;;2.77;;
15848;SDS011;8024;48.708;9.394;2023-07-22T04:27:03;3.00;;;2.80;;
15848;SDS011;8024;48.708;9.394;2023-07-22T04:29:31;3.10;;;2.43;;
15848;SDS011;8024;48.708;9.394;2023-07-22T04:31:58;3.20;;;2.97;;
15848;SDS011;8024;48.708;9.394;2023-07-22T04:34:29;5.30;;;2.93;;
15848;SDS011;8024;48.708;9.394;2023-07-22T04:36:59;3.97;;;2.80;;
15848;SDS011;8024;48.708;9.394;2023-07-22T04:39:26;2.97;;;2.57;;
15848;SDS011;8024;48.708;9.394;2023-07-22T04:41:54;3.63;;;3.10;;
15848;SDS011;8024;48.708;9.394;2023-07-22T04:44:21;3.40;;;3.10;;
15848;SDS011;8024;48.708;9.394;2023-07-22T04:46:49;3.63;;;3.33;;
15848;SDS011;8024;48.708;9.394;2023-07-22T04:49:16;2.80;;;2.60;;
15848;SDS011;8024;48.708;9.394;2023-07-22T04:51:45;4.07;;;2.63;;
15848;SDS011;8024;48.708;9.394;2023-07-22T04:54:12;3.57;;;3.10;;
15848;SDS011;8024;48.708;9.394;2023-07-22T04:56:40;3.50;;;3.30;;
15848;SDS011;8024;48.708;9.394;2023-07-22T04:59:07;3.97;;;3.60;;
15848;SDS011;8024;48.708;9.394;2023-07-22T05:01:35;3.80;;;3.50;;
15848;SDS011;8024;48.708;9.394;2023-07-22T05:04:02;3.17;;;2.87;;
15848;SDS011;8024;48.708;9.394;2023-07-22T05:06:29;3.97;;;3.37;;
15848;SDS011;8024;48.708;9.394;2023-07-22T05:08:58;3.50;;;3.20;;
15848;SDS011;8024;48.708;9.394;2023-07-22T05:11:25;4.00;;;3.60;;
15848;SDS011;8024;48.708;9.394;2023-07-22T05:13:52;4.27;;;3.80;;
15848;SDS011;8024;48.708;9.394;2023-07-22T05:16:20;3.93;;;3.53;;
15848;SDS011;8024;48.708;9.394;2023-07-22T05:18:47;4.20;;;3.20;;
15848;SDS011;8024;48.708;9.394;2023-07-22T05:21:14;3.23;;;2.97;;
15848;SDS011;8024;48.708;9.394;2023-07-22T05:23:41;4.27;;;3.27;;
15848;SDS011;8024;48.708;9.394;2023-07-22T05:26:09;3.40;;;3.20;;
15848;SDS011;8024;48.708;9.394;2023-07-22T05:28:37;3.93;;;3.07;;
15848;SDS011;8024;48.708;9.394;2023-07-22T05:31:04;3.70;;;3.37;;
15848;SDS011;8024;48.708;9.394;2023-07-22T05:33:31;4.63;;;4.20;;
15848;SDS011;8024;48.708;9.394;2023-07-22T05:35:58;3.83;;;3.53;;
15848;SDS011;8024;48.708;9.394;2023-07-22T05:38:26;4.70;;;4.20;;
15848;SDS011;8024;48.708;9.394;2023-07-22T05:40:53;3.50;;;3.27;;
15848;SDS011;8024;48.708;9.394;2023-07-22T05:43:21;3.87;;;3.57;;
15848;SDS011;8024;48.708;9.394;2023-07-22T05:45:48;4.57;;;4.17;;
15848;SDS011;8024;48.708;9.394;2023-07-22T05:48:16;4.33;;;3.93;;
15848;SDS011;8024;48.708;9.394;2023-07-22T05:50:43;4.10;;;3.63;;
15848;SDS011;8024;48.708;9.394;2023-07-22T05:53:10;3.53;;;3.23;;
15848;SDS011;8024;48.708;9.394;2023-07-22T05:55:38;3.67;;;3.37;;
15848;SDS011;8024;48.708;9.394;2023-07-22T05:58:05;3.90;;;3.50;;
15848;SDS011;8024;48.708;9.394;2023-07-22T06:00:34;4.27;;;3.77;;
15848;SDS011;8024;48.708;9.394;2023-07-22T06:03:02;4.13;;;3.57;;
15848;SDS011;8024;48.708;9.394;2023-07-22T06:05:29;3.33;;;3.13;;
15848;SDS011;8024;48.708;9.394;2023-07-22T06:07:57;3.50;;;3.20;;
15848;SDS011;8024;48.708;9.394;2023-07-22T06:10:24;3.70;;;3.17;;
15848;SDS011;8024;48.708;9.394;2023-07-22T06:12:51;4.03;;;3.40;;
15848;SDS011;8024;48.708;9.394;2023-07-22T06:15:18;2.63;;;2.43;;
15848;SDS011;8024;48.708;9.394;2023-07-22T06:17:47;3.50;;;3.20;;
15848;SDS011;8024;48.708;9.394;2023-07-22T06:20:14;3.00;;;2.70;;
15848;SDS011;8024;48.708;9.394;2023-07-22T06:22:41;2.90;;;2.70;;
15848;SDS011;8024;48.708;9.394;2023-07-22T06:25:08;2.80;;;2.53;;
15848;SDS011;8024;48.708;9.394;2023-07-22T06:27:37;2.47;;;2.27;;
15848;SDS011;8024;48.708;9.394;2023-07-22T06:30:05;5.03;;;2.87;;
15848;SDS011;8024;48.708;9.394;2023-07-22T06:32:33;4.43;;;3.77;;
15848;SDS011;8024;48.708;9.394;2023-07-22T06:35:04;3.57;;;2.97;;
15848;SDS011;8024;48.708;9.394;2023-07-22T06:37:32;3.33;;;3.10;;
15848;SDS011;8024;48.708;9.394;2023-07-22T06:40:00;2.70;;;2.40;;
15848;SDS011;8024;48.708;9.394;2023-07-22T06:42:27;4.67;;;3.00;;
15848;SDS011;8024;48.708;9.394;2023-07-22T06:44:54;2.20;;;2.00;;
15848;SDS011;8024;48.708;9.394;2023-07-22T06:47:21;3.00;;;2.17;;
15848;SDS011;8024;48.708;9.394;2023-07-22T06:49:49;2.93;;;2.37;;
15848;SDS011;8024;48.708;9.394;2023-07-22T06:52:18;2.37;;;1.97;;
15848;SDS011;8024;48.708;9.394;2023-07-22T06:54:45;2.53;;;2.33;;
15848;SDS011;8024;48.708;9.394;2023-07-22T06:57:12;1.87;;;1.77;;
15848;SDS011;8024;48.708;9.394;2023-07-22T06:59:39;5.73;;;2.10;;
15848;SDS011;8024;48.708;9.394;2023-07-22T07:02:06;2.90;;;2.47;;
15848;SDS011;8024;48.708;9.394;2023-07-22T07:04:34;3.70;;;2.00;;
15848;SDS011;8024;48.708;9.394;2023-07-22T07:07:01;4.43;;;2.10;;
15848;SDS011;8024;48.708;9.394;2023-07-22T07:09:34;2.57;;;2.27;;
15848;SDS011;8024;48.708;9.394;2023-07-22T07:12:01;2.10;;;1.90;;
15848;SDS011;8024;48.708;9.394;2023-07-22T07:14:29;1.90;;;1.80;;
15848;SDS011;8024;48.708;9.394;2023-07-22T07:16:56;2.43;;;2.00;;
15848;SDS011;8024;48.708;9.394;2023-07-22T07:19:23;2.10;;;1.90;;
15848;SDS011;8024;48.708;9.394;2023-07-22T07:21:50;2.07;;;1.90;;
15848;SDS011;8024;48.708;9.394;2023-07-22T07:24:17;1.77;;;1.67;;
15848;SDS011;8024;48.708;9.394;2023-07-22T07:26:46;5.17;;;2.20;;
15848;SDS011;8024;48.708;9.394;2023-07-22T07:29:13;2.17;;;1.93;;
15848;SDS011;8024;48.708;9.394;2023-07-22T07:31:40;3.20;;;1.80;;
15848;SDS011;8024;48.708;9.394;2023-07-22T07:34:07;3.03;;;2.13;;
15848;SDS011;8024;48.708;9.394;2023-07-22T07:36:35;3.87;;;2.10;;
15848;SDS011;8024;48.708;9.394;2023-07-22T07:39:02;2.20;;;1.90;;
15848;SDS011;8024;48.708;9.394;2023-07-22T07:41:30;2.80;;;2.10;;
15848;SDS011;8024;48.708;9.394;2023-07-22T07:43:58;3.07;;;1.83;;
15848;SDS011;8024;48.708;9.394;2023-07-22T07:46:26;2.47;;;1.90;;
15848;SDS011;8024;48.708;9.394;2023-07-22T07:48:54;2.33;;;2.13;;
15848;SDS011;8024;48.708;9.394;2023-07-22T07:51:23;2.17;;;1.70;;
15848;SDS011;8024;48.708;9.394;2023-07-22T07:53:52;2.40;;;1.60;;
15848;SDS011;8024;48.708;9.394;2023-07-22T07:56:20;2.40;;;2.00;;
15848;SDS011;8024;48.708;9.394;2023-07-22T07:58:48;1.70;;;1.60;;
15848;SDS011;8024;48.708;9.394;2023-07-22T08:01:17;1.60;;;1.40;;
15848;SDS011;8024;48.708;9.394;2023-07-22T08:03:44;3.53;;;1.60;;
15848;SDS011;8024;48.708;9.394;2023-07-22T08:06:12;1.43;;;1.33;;
15848;SDS011;8024;48.708;9.394;2023-07-22T08:08:39;4.03;;;1.40;;
15848;SDS011;8024;48.708;9.394;2023-07-22T08:11:14;1.47;;;1.37;;
15848;SDS011;8024;48.708;9.394;2023-07-22T08:13:42;3.17;;;1.80;;
15848;SDS011;8024;48.708;9.394;2023-07-22T08:16:10;1.77;;;1.67;;
15848;SDS011;8024;48.708;9.394;2023-07-22T08:18:40;2.53;;;1.60;;
15848;SDS011;8024;48.708;9.394;2023-07-22T08:21:08;3.37;;;1.40;;
15848;SDS011;8024;48.708;9.394;2023-07-22T08:23:35;2.57;;;1.40;;
15848;SDS011;8024;48.708;9.394;2023-07-22T08:26:03;1.77;;;1.57;;
15848;SDS011;8024;48.708;9.394;2023-07-22T08:28:31;2.37;;;1.60;;
15848;SDS011;8024;48.708;9.394;2023-07-22T08:30:58;1.93;;;1.57;;
15848;SDS011;8024;48.708;9.394;2023-07-22T08:33:26;4.83;;;1.63;;
15848;SDS011;8024;48.708;9.394;2023-07-22T08:35:55;1.40;;;1.30;;
15848;SDS011;8024;48.708;9.394;2023-07-22T08:38:22;1.60;;;1.40;;
15848;SDS011;8024;48.708;9.394;2023-07-22T08:40:49;3.47;;;1.30;;
15848;SDS011;8024;48.708;9.394;2023-07-22T08:43:19;1.80;;;1.23;;
15848;SDS011;8024;48.708;9.394;2023-07-22T08:45:48;2.13;;;1.10;;
15848;SDS011;8024;48.708;9.394;2023-07-22T08:48:17;2.30;;;1.20;;
15848;SDS011;8024;48.708;9.394;2023-07-22T08:50:52;1.27;;;0.97;;
15848;SDS011;8024;48.708;9.394;2023-07-22T08:53:23;1.90;;;0.73;;
15848;SDS011;8024;48.708;9.394;2023-07-22T08:55:51;2.27;;;0.80;;
15848;SDS011;8024;48.708;9.394;2023-07-22T08:58:19;1.63;;;0.73;;
15848;SDS011;8024;48.708;9.394;2023-07-22T09:00:47;0.80;;;0.80;;
15848;SDS011;8024;48.708;9.394;2023-07-22T09:03:14;1.93;;;0.83;;
15848;SDS011;8024;48.708;9.394;2023-07-22T09:05:43;2.77;;;0.80;;
15848;SDS011;8024;48.708;9.394;2023-07-22T09:08:12;1.20;;;0.80;;
15848;SDS011;8024;48.708;9.394;2023-07-22T09:10:39;1.63;;;0.80;;
15848;SDS011;8024;48.708;9.394;2023-07-22T09:13:08;2.10;;;0.87;;
15848;SDS011;8024;48.708;9.394;2023-07-22T09:15:36;1.83;;;0.80;;
15848;SDS011;8024;48.708;9.394;2023-07-22T09:18:03;1.90;;;0.87;;
15848;SDS011;8024;48.708;9.394;2023-07-22T09:20:31;1.27;;;0.60;;
15848;SDS011;8024;48.708;9.394;2023-07-22T09:22:59;1.00;;;0.90;;
15848;SDS011;8024;48.708;9.394;2023-07-22T09:25:28;2.23;;;0.87;;
15848;SDS011;8024;48.708;9.394;2023-07-22T09:27:57;1.63;;;0.80;;
15848;SDS011;8024;48.708;9.394;2023-07-22T09:30:26;1.77;;;0.83;;
15848;SDS011;8024;48.708;9.394;2023-07-22T09:32:56;1.53;;;0.77;;
15848;SDS011;8024;48.708;9.394;2023-07-22T09:35:24;1.43;;;0.63;;
15848;SDS011;8024;48.708;9.394;2023-07-22T09:37:53;0.80;;;0.80;;
15848;SDS011;8024;48.708;9.394;2023-07-22T09:40:22;0.57;;;0.50;;
15848;SDS011;8024;48.708;9.394;2023-07-22T09:42:52;1.83;;;0.67;;
15848;SDS011;8024;48.708;9.394;2023-07-22T09:45:21;2.70;;;0.70;;
15848;SDS011;8024;48.708;9.394;2023-07-22T09:47:50;2.33;;;0.80;;
15848;SDS011;8024;48.708;9.394;2023-07-22T09:50:19;2.33;;;0.70;;
15848;SDS011;8024;48.708;9.394;2023-07-22T09:52:48;0.60;;;0.60;;
15848;SDS011;8024;48.708;9.394;2023-07-22T09:55:17;1.03;;;0.77;;
15848;SDS011;8024;48.708;9.394;2023-07-22T09:57:45;1.47;;;0.90;;
15848;SDS011;8024;48.708;9.394;2023-07-22T10:00:16;1.87;;;1.07;;
15848;SDS011;8024;48.708;9.394;2023-07-22T10:02:46;1.17;;;0.80;;
15848;SDS011;8024;48.708;9.394;2023-07-22T10:05:15;3.27;;;1.07;;
15848;SDS011;8024;48.708;9.394;2023-07-22T10:07:44;1.63;;;0.90;;
15848;SDS011;8024;48.708;9.394;2023-07-22T10:10:13;0.90;;;0.90;;
15848;SDS011;8024;48.708;9.394;2023-07-22T10:12:42;1.23;;;0.57;;
15848;SDS011;8024;48.708;9.394;2023-07-22T10:15:11;0.83;;;0.70;;
15848;SDS011;8024;48.708;9.394;2023-07-22T10:17:40;1.07;;;0.73;;
15848;SDS011;8024;48.708;9.394;2023-07-22T10:20:09;0.80;;;0.43;;
15848;SDS011;8024;48.708;9.394;2023-07-22T10:22:40;3.13;;;1.00;;
15848;SDS011;8024;48.708;9.394;2023-07-22T10:25:10;1.13;;;0.70;;
15848;SDS011;8024;48.708;9.394;2023-07-22T10:27:38;1.00;;;0.90;;
15848;SDS011;8024;48.708;9.394;2023-07-22T10:30:06;0.60;;;0.60;;
15848;SDS011;8024;48.708;9.394;2023-07-22T10:32:35;0.80;;;0.70;;
15848;SDS011;8024;48.708;9.394;2023-07-22T10:35:07;0.90;;;0.70;;
15848;SDS011;8024;48.708;9.394;2023-07-22T10:37:36;1.57;;;0.90;;
15848;SDS011;8024;48.708;9.394;2023-07-22T10:40:17;1.70;;;0.77;;
15848;SDS011;8024;48.708;9.394;2023-07-22T10:42:51;0.63;;;0.63;;
15848;SDS011;8024;48.708;9.394;2023-07-22T10:45:25;1.30;;;0.73;;
15848;SDS011;8024;48.708;9.394;2023-07-22T10:48:00;1.70;;;0.70;;
15848;SDS011;8024;48.708;9.394;2023-07-22T10:50:39;1.03;;;0.70;;
15848;SDS011;8024;48.708;9.394;2023-07-22T10:53:09;1.10;;;0.80;;
15848;SDS011;8024;48.708;9.394;2023-07-22T10:58:33;0.83;;;0.63;;
15848;SDS011;8024;48.708;9.394;2023-07-22T11:01:21;0.47;;;0.47;;
15848;SDS011;8024;48.708;9.394;2023-07-22T11:04:02;1.00;;;0.90;;
15848;SDS011;8024;48.708;9.394;2023-07-22T11:06:34;1.53;;;0.50;;
15848;SDS011;8024;48.708;9.394;2023-07-22T11:09:03;1.37;;;0.53;;
15848;SDS011;8024;48.708;9.394;2023-07-22T11:11:34;2.70;;;0.50;;
15848;SDS011;8024;48.708;9.394;2023-07-22T11:14:15;0.73;;;0.73;;
15848;SDS011;8024;48.708;9.394;2023-07-22T11:16:44;0.77;;;0.60;;
15848;SDS011;8024;48.708;9.394;2023-07-22T11:19:13;1.63;;;0.60;;
15848;SDS011;8024;48.708;9.394;2023-07-22T11:21:42;0.80;;;0.60;;
15848;SDS011;8024;48.708;9.394;2023-07-22T11:24:10;1.30;;;0.77;;
15848;SDS011;8024;48.708;9.394;2023-07-22T11:26:37;0.70;;;0.70;;
15848;SDS011;8024;48.708;9.394;2023-07-22T11:29:05;0.82;;;0.50;;
15848;SDS011;8024;48.708;9.394;2023-07-22T11:31:34;2.30;;;0.67;;
15848;SDS011;8024;48.708;9.394;2023-07-22T11:34:02;1.25;;;0.55;;
15848;SDS011;8024;48.708;9.394;2023-07-22T11:36:30;0.60;;;0.43;;
15848;SDS011;8024;48.708;9.394;2023-07-22T11:39:04;1.75;;;0.90;;
15848;SDS011;8024;48.708;9.394;2023-07-22T11:41:32;1.48;;;0.70;;
15848;SDS011;8024;48.708;9.394;2023-07-22T11:44:00;0.80;;;0.70;;
15848;SDS011;8024;48.708;9.394;2023-07-22T11:46:33;0.47;;;0.47;;
15848;SDS011;8024;48.708;9.394;2023-07-22T11:49:01;1.02;;;0.80;;
15848;SDS011;8024;48.708;9.394;2023-07-22T11:51:29;0.80;;;0.70;;
15848;SDS011;8024;48.708;9.394;2023-07-22T11:53:58;0.80;;;0.80;;
15848;SDS011;8024;48.708;9.394;2023-07-22T11:56:27;1.05;;;0.95;;
15848;SDS011;8024;48.708;9.394;2023-07-22T11:58:55;0.70;;;0.70;;
15848;SDS011;8024;48.708;9.394;2023-07-22T12:01:22;1.52;;;0.80;;
15848;SDS011;8024;48.708;9.394;2023-07-22T12:03:54;1.92;;;0.68;;
15848;SDS011;8024;48.708;9.394;2023-07-22T12:06:24;0.70;;;0.70;;
15848;SDS011;8024;48.708;9.394;2023-07-22T12:08:52;2.20;;;0.73;;
15848;SDS011;8024;48.708;9.394;2023-07-22T12:11:20;0.80;;;0.80;;
15848;SDS011;8024;48.708;9.394;2023-07-22T12:13:50;1.10;;;0.82;;
15848;SDS011;8024;48.708;9.394;2023-07-22T12:16:33;3.60;;;1.30;;
15848;SDS011;8024;48.708;9.394;2023-07-22T12:19:01;1.30;;;0.70;;
15848;SDS011;8024;48.708;9.394;2023-07-22T12:21:29;0.75;;;0.75;;
15848;SDS011;8024;48.708;9.394;2023-07-22T12:23:56;0.77;;;0.75;;
15848;SDS011;8024;48.708;9.394;2023-07-22T12:26:23;0.75;;;0.75;;
15848;SDS011;8024;48.708;9.394;2023-07-22T12:28:52;2.45;;;1.05;;
15848;SDS011;8024;48.708;9.394;2023-07-22T12:31:19;0.88;;;0.70;;
15848;SDS011;8024;48.708;9.394;2023-07-22T12:33:47;1.60;;;0.77;;
15848;SDS011;8024;48.708;9.394;2023-07-22T12:36:14;2.92;;;1.13;;
15848;SDS011;8024;48.708;9.394;2023-07-22T12:38:42;1.13;;;0.68;;
15848;SDS011;8024;48.708;9.394;2023-07-22T12:41:09;0.70;;;0.70;;
15848;SDS011;8024;48.708;9.394;2023-07-22T12:43:36;3.58;;;0.93;;
15848;SDS011;8024;48.708;9.394;2023-07-22T12:46:04;1.50;;;0.85;;
15848;SDS011;8024;48.708;9.394;2023-07-22T12:48:31;1.30;;;0.90;;
15848;SDS011;8024;48.708;9.394;2023-07-22T12:50:59;0.80;;;0.80;;
15848;SDS011;8024;48.708;9.394;2023-07-22T12:53:26;1.45;;;0.80;;
15848;SDS011;8024;48.708;9.394;2023-07-22T12:55:54;1.27;;;0.90;;
15848;SDS011;8024;48.708;9.394;2023-07-22T12:58:21;1.65;;;0.85;;
15848;SDS011;8024;48.708;9.394;2023-07-22T13:00:48;1.70;;;1.00;;
15848;SDS011;8024;48.708;9.394;2023-07-22T13:03:16;1.85;;;0.80;;
15848;SDS011;8024;48.708;9.394;2023-07-22T13:05:43;1.55;;;1.35;;
15848;SDS011;8024;48.708;9.394;2023-07-22T13:08:11;0.70;;;0.70;;
15848;SDS011;8024;48.708;9.394;2023-07-22T13:10:38;1.58;;;0.68;;
15848;SDS011;8024;48.708;9.394;2023-07-22T13:13:08;1.40;;;0.70;;
15848;SDS011;8024;48.708;9.394;2023-07-22T13:15:36;1.60;;;0.60;;
15848;SDS011;8024;48.708;9.394;2023-07-22T13:18:03;0.95;;;0.88;;
15848;SDS011;8024;48.708;9.394;2023-07-22T13:20:31;2.10;;;0.73;;
15848;SDS011;8024;48.708;9.394;2023-07-22T13:22:58;0.95;;;0.77;;
15848;SDS011;8024;48.708;9.394;2023-07-22T13:25:26;1.35;;;0.80;;
15848;SDS011;8024;48.708;9.394;2023-07-22T13:27:53;1.27;;;0.98;;
15848;SDS011;8024;48.708;9.394;2023-07-22T13:30:20;1.58;;;0.70;;
15848;SDS011;8024;48.708;9.394;2023-07-22T13:32:47;2.75;;;1.10;;
15848;SDS011;8024;48.708;9.394;2023-07-22T13:35:14;1.15;;;0.80;;
15848;SDS011;8024;48.708;9.394;2023-07-22T13:37:43;3.33;;;1.30;;
15848;SDS011;8024;48.708;9.394;2023-07-22T13:40:10;1.42;;;1.20;;
15848;SDS011;8024;48.708;9.394;2023-07-22T13:42:38;6.78;;;0.90;;
15848;SDS011;8024;48.708;9.394;2023-07-22T13:45:05;1.60;;;1.00;;
15848;SDS011;8024;48.708;9.394;2023-07-22T13:47:33;2.50;;;1.30;;
15848;SDS011;8024;48.708;9.394;2023-07-22T13:50:00;1.58;;;1.10;;
15848;SDS011;8024;48.708;9.394;2023-07-22T13:52:28;4.20;;;2.22;;
15848;SDS011;8024;48.708;9.394;2023-07-22T13:54:56;1.75;;;1.15;;
15848;SDS011;8024;48.708;9.394;2023-07-22T13:57:24;3.55;;;1.20;;
15848;SDS011;8024;48.708;9.394;2023-07-22T13:59:51;1.20;;;1.10;;
15848;SDS011;8024;48.708;9.394;2023-07-22T14:02:18;1.20;;;1.10;;
15848;SDS011;8024;48.708;9.394;2023-07-22T14:04:45;2.13;;;1.33;;
15848;SDS011;8024;48.708;9.394;2023-07-22T14:07:12;1.55;;;1.25;;
15848;SDS011;8024;48.708;9.394;2023-07-22T14:09:39;3.20;;;1.35;;
15848;SDS011;8024;48.708;9.394;2023-07-22T14:12:08;1.25;;;1.10;;
15848;SDS011;8024;48.708;9.394;2023-07-22T14:14:36;1.60;;;1.50;;
15848;SDS011;8024;48.708;9.394;2023-07-22T14:17:03;2.75;;;1.40;;
15848;SDS011;8024;48.708;9.394;2023-07-22T14:19:31;1.90;;;1.10;;
15848;SDS011;8024;48.708;9.394;2023-07-22T14:21:58;2.35;;;1.60;;
15848;SDS011;8024;48.708;9.394;2023-07-22T14:24:25;1.55;;;1.45;;
15848;SDS011;8024;48.708;9.394;2023-07-22T14:26:53;1.98;;;1.40;;
15848;SDS011;8024;48.708;9.394;2023-07-22T14:29:21;3.55;;;1.30;;
15848;SDS011;8024;48.708;9.394;2023-07-22T14:31:57;1.75;;;1.65;;
15848;SDS011;8024;48.708;9.394;2023-07-22T14:34:41;1.83;;;1.45;;
15848;SDS011;8024;48.708;9.394;2023-07-22T14:37:08;1.42;;;1.33;;
15848;SDS011;8024;48.708;9.394;2023-07-22T14:39:35;3.42;;;1.80;;
15848;SDS011;8024;48.708;9.394;2023-07-22T14:42:03;3.05;;;1.70;;
15848;SDS011;8024;48.708;9.394;2023-07-22T14:44:31;1.50;;;1.40;;
15848;SDS011;8024;48.708;9.394;2023-07-22T14:46:58;2.38;;;2.05;;
15848;SDS011;8024;48.708;9.394;2023-07-22T14:49:25;1.75;;;1.40;;
15848;SDS011;8024;48.708;9.394;2023-07-22T14:51:53;1.73;;;1.63;;
15848;SDS011;8024;48.708;9.394;2023-07-22T14:54:21;2.05;;;1.35;;
15848;SDS011;8024;48.708;9.394;2023-07-22T14:56:48;2.60;;;1.90;;
15848;SDS011;8024;48.708;9.394;2023-07-22T14:59:15;2.80;;;1.38;;
15848;SDS011;8024;48.708;9.394;2023-07-22T15:01:44;2.00;;;1.65;;
15848;SDS011;8024;48.708;9.394;2023-07-22T15:04:11;1.88;;;1.63;;
15848;SDS011;8024;48.708;9.394;2023-07-22T15:06:38;2.28;;;1.75;;
15848;SDS011;8024;48.708;9.394;2023-07-22T15:09:05;3.92;;;1.70;;